NCAR-RAP Real-Time Weather Data

Output produced by METARs form (23 February 2020  02:37 UTC)
found at http://weather.rap.ucar.edu/surface/
 
KBZN 230156Z 05003KT 10SM CLR 01/M08 A2998 RMK AO2 SLP202 T00111078